Ana Sayfa
METAR-TAF:

METAR-TAF

Havaalanları :

Olive Branch Airport

Olive Branch, Mississipi, Amerika Birleşik Devletleri

Enlem: 34-58-44N, Boylam: 089-47-13W, yükseklik: 122 m

Güncel hava durumu gözlemi

Rapor saat 18:50 UTC de 29 dakika önce yapıldı.
Rüzgar güney/güneybatıdan 6 kt
Sıcaklık 35°C
Nem 53%
Basınç 1014 hPa
Görüş mesafesi: 16.1 km
4900 ft yükseklikte az bulutlu
6000 ft yükseklikte az bulutlu
7000 ft yükseklikte parçalı bulutlu

METAR: KOLV 251850Z 21006KT 10SM FEW049 FEW060 SCT070 35/24 A2995

Saat: 14:19 (19:19 UTC)


TAF: eksik

4.000'den fazla havaalanı için hava durumu gözlemleri ve tahminleri (METAR ve TAF raporları).

Kullanılabilir istasyonlar harita üzerinde sarı ve kırmızı noktalarla gösterilir.

İstasyonun adını görmek için fareyi noktanın üzerinde gezdirin.

Sonrasında hava gözlem ve tahminlerini görmek için tıklayın.

Haritayı değiştirmek için: yaklaştırmak için siyah artı işaretli yeşil düğmeye ve uzaklaştırmak için de eksi işaretli düğmeye hızla tıklayın; bitişik haritalar için yeşil okları kullanın.


METAR-TAF: